1M5

Portland Municipal Airport

Portland, Tennessee, USA
METAR K1M5 230855Z AUTO 11008G14KT 080V140 5SM BR FEW004 BKN022 OVC048 14/13 A2988 RMK A01 P0004
Observed Flight Rules
Apr-23 @ 08:55 UTC (29 minutes ago) Marginal Visual Flight Rules
Wind Visibility Clouds Conditions
110° at 8 knots
 Gusting to 14 knots
5 miles
  • Few at 400' AGL
  • Broken at 2,200' AGL
  • Overcast at 4,800' AGL
  • Mist
Temperatures Readings Precipitation
Current 14°C / 57°F
Dewpoint 13°C / 55°F
Humidity 94%
Altimeter 29.88" Hg
Pressure 1012 hPa
Elevation 250
Current Rain 0.04
METAR K1M5 230855Z AUTO 11008G14KT 080V140 5SM BR FEW004 BKN022 OVC048 14/13 A2988 RMK A01 P0004
Observed Flight Rules
Apr-23 @ 08:55 UTC
(29 minutes ago)
MVFR
Wind Visibility
110° at 8 knots
 Gusting to 14 knots
5 miles
Clouds
  • Few at 400' AGL
  • Broken at 2,200' AGL
  • Overcast at 4,800' AGL
Conditions
  • Mist
Temperature Dewpoint
14°C / 57°F 13°C / 55°F
Humidity Altimeter Pressure
94% 29.88" Hg 1012 hPa
Current Rain
0.04